Time;durP1;ratioP1;P1;durP2;ratioP2;P2;SDS_P1;SDS_P2;PMS_P1;PMS_P2;Temp;Humidity;BMP_temperature;BMP_pressure;BME280_temperature;BME280_humidity;BME280_pressure;Samples;Min_cycle;Max_cycle;Signal;HPM_P1;HPM_P2
2023/06/24 00:00:09;;;;;;;7.50;5.33;;;;;;;-145.69;nan;52295.84;5073300;28;20857;-85
2023/06/24 00:02:43;;;;;;;10.40;5.73;;;;;;;-145.69;nan;52272.09;5073106;28;20214;-86
2023/06/24 00:05:10;;;;;;;9.60;4.97;;;;;;;-145.69;nan;52256.25;5073630;28;20333;-85
2023/06/24 00:07:44;;;;;;;8.55;5.47;;;;;;;-145.69;nan;52311.69;5062236;28;20286;-85
2023/06/24 00:10:13;;;;;;;9.87;5.40;;;;;;;-145.69;nan;52254.28;5053388;28;20261;-85
2023/06/24 00:12:43;;;;;;;8.10;5.40;;;;;;;-145.69;nan;52319.63;5068237;28;20626;-85
2023/06/24 00:15:10;;;;;;;10.73;5.57;;;;;;;-145.69;nan;52244.38;5066509;28;20321;-84
2023/06/24 00:17:37;;;;;;;11.57;5.50;;;;;;;-145.69;nan;52244.38;5071644;28;20203;-85
2023/06/24 00:20:13;;;;;;;7.70;5.17;;;;;;;-145.69;nan;52248.34;5071669;28;20649;-86
2023/06/24 00:22:44;;;;;;;7.73;5.07;;;;;;;-145.69;nan;52283.97;5073371;28;20190;-85
2023/06/24 00:25:10;;;;;;;9.03;5.33;;;;;;;-145.69;nan;52272.09;5072693;28;20209;-85
2023/06/24 00:27:37;;;;;;;10.23;5.77;;;;;;;-145.69;nan;52266.16;5072676;28;20203;-86
2023/06/24 00:30:04;;;;;;;9.60;5.67;;;;;;;-145.69;nan;52254.28;5072938;28;20253;-85
2023/06/24 00:32:37;;;;;;;12.50;5.53;;;;;;;-145.69;nan;52289.91;5070940;28;20213;-85
2023/06/24 00:35:04;;;;;;;8.80;5.60;;;;;;;-145.69;nan;52270.13;5072901;28;20225;-85
2023/06/24 00:37:31;;;;;;;10.70;6.00;;;;;;;-145.69;nan;52305.75;5072072;28;20206;-85
2023/06/24 00:39:58;;;;;;;9.50;5.77;;;;;;;-145.69;nan;52266.16;5072798;28;20552;-85
2023/06/24 00:42:26;;;;;;;8.27;5.50;;;;;;;-145.69;nan;52287.94;5072951;28;20199;-85
2023/06/24 00:44:53;;;;;;;7.83;5.53;;;;;;;-145.69;nan;52258.22;5072612;28;20203;-85
2023/06/24 00:47:22;;;;;;;10.43;5.03;;;;;;;-145.69;nan;52250.31;5073343;28;20641;-85
2023/06/24 00:49:55;;;;;;;8.47;5.33;;;;;;;-145.69;nan;52274.06;5072266;28;20691;-86
2023/06/24 00:52:21;;;;;;;6.72;4.88;;;;;;;-145.69;nan;52283.97;5073344;28;20209;-85
2023/06/24 00:54:52;;;;;;;8.60;5.33;;;;;;;-145.69;nan;52258.22;5073049;28;20660;-86
2023/06/24 00:57:23;;;;;;;9.23;5.15;;;;;;;-145.69;nan;52285.97;5072208;28;20293;-85
2023/06/24 00:59:53;;;;;;;7.03;5.10;;;;;;;-145.69;nan;52309.72;5072458;28;20206;-86
2023/06/24 01:02:21;;;;;;;8.57;5.03;;;;;;;-145.69;nan;52274.06;5072777;28;20237;-85
2023/06/24 01:04:51;;;;;;;14.57;5.63;;;;;;;-145.69;nan;52283.97;5072662;28;20213;-85
2023/06/24 01:07:19;;;;;;;9.63;5.00;;;;;;;-145.69;nan;52282.00;5072793;28;20206;-85
2023/06/24 01:09:46;;;;;;;8.97;5.40;;;;;;;-145.69;nan;52266.16;5072420;28;20202;-86
2023/06/24 01:12:12;;;;;;;10.00;5.60;;;;;;;-145.69;nan;52274.06;5072316;28;20267;-85
2023/06/24 01:14:46;;;;;;;12.73;5.70;;;;;;;-145.69;nan;52285.97;5072686;28;20226;-85
2023/06/24 01:17:17;;;;;;;8.13;5.30;;;;;;;-145.69;nan;52282.00;5072296;28;20265;-86
2023/06/24 01:20:10;;;;;;;7.67;4.90;;;;;;;-145.69;nan;52274.06;5072579;28;20205;-85
2023/06/24 01:23:26;;;;;;;9.17;5.37;;;;;;;-145.69;nan;52278.03;5066454;28;20203;-85
2023/06/24 01:26:17;;;;;;;8.40;5.27;;;;;;;-145.69;nan;52254.28;5072759;28;20199;-85
2023/06/24 01:29:03;;;;;;;7.60;4.57;;;;;;;-145.69;nan;52254.28;5039254;28;20214;-86
2023/06/24 01:31:37;;;;;;;9.47;4.83;;;;;;;-145.69;nan;52264.16;5074077;28;20203;-85
2023/06/24 01:34:11;;;;;;;12.00;5.10;;;;;;;-145.69;nan;52285.97;5075104;28;20963;-85
2023/06/24 01:36:45;;;;;;;9.47;5.10;;;;;;;-145.69;nan;52303.78;5059563;28;20195;-85
2023/06/24 01:39:14;;;;;;;9.23;4.67;;;;;;;-145.69;nan;52266.16;5076129;28;20214;-86
2023/06/24 01:41:52;;;;;;;8.47;4.77;;;;;;;-145.69;nan;52264.16;5075724;28;20198;-85
2023/06/24 01:44:23;;;;;;;8.40;4.40;;;;;;;-145.69;nan;52246.34;5075749;28;20607;-84
2023/06/24 01:47:01;;;;;;;10.10;4.77;;;;;;;-145.69;nan;52266.16;5076062;28;20207;-85
2023/06/24 01:49:30;;;;;;;8.63;4.87;;;;;;;-145.69;nan;52250.31;5075752;28;20234;-86
2023/06/24 01:52:01;;;;;;;6.40;4.23;;;;;;;-145.69;nan;52270.13;5073753;28;20650;-85
2023/06/24 01:54:32;;;;;;;10.97;5.10;;;;;;;-145.69;nan;52307.75;5075628;28;20585;-86
2023/06/24 01:57:00;;;;;;;9.23;4.60;;;;;;;-145.69;nan;52278.03;5075545;28;20245;-84
2023/06/24 01:59:30;;;;;;;7.80;4.27;;;;;;;-145.69;nan;52252.28;5075678;28;20289;-84
2023/06/24 02:01:59;;;;;;;7.00;4.60;;;;;;;-145.69;nan;52266.16;5071551;28;20226;-84
2023/06/24 02:04:34;;;;;;;9.43;4.47;;;;;;;-145.69;nan;52282.00;5075635;28;20199;-85
2023/06/24 02:07:07;;;;;;;7.97;4.03;;;;;;;-145.69;nan;52297.84;5075374;28;20212;-83
2023/06/24 02:09:34;;;;;;;11.27;4.27;;;;;;;-145.69;nan;52252.28;5075354;28;20202;-85
2023/06/24 02:12:06;;;;;;;10.10;4.45;;;;;;;-145.69;nan;52280.00;5075228;28;20711;-85
2023/06/24 02:14:36;;;;;;;6.77;4.27;;;;;;;-145.69;nan;52276.06;5075146;28;20592;-84
2023/06/24 02:17:13;;;;;;;7.50;4.00;;;;;;;-145.69;nan;52305.75;5075175;28;20221;-85
2023/06/24 02:19:45;;;;;;;7.80;4.77;;;;;;;-145.69;nan;52285.97;5074958;28;20585;-85
2023/06/24 02:22:13;;;;;;;8.63;3.87;;;;;;;-145.69;nan;52285.97;5074940;28;20194;-85
2023/06/24 02:24:41;;;;;;;6.77;4.30;;;;;;;-145.69;nan;52270.13;5075064;28;20210;-85
2023/06/24 02:27:11;;;;;;;7.82;4.40;;;;;;;-145.69;nan;52270.13;5074377;28;20928;-85
2023/06/24 02:29:39;;;;;;;8.80;4.20;;;;;;;-145.69;nan;52297.84;5075298;28;20206;-85
2023/06/24 02:32:08;;;;;;;11.57;3.90;;;;;;;-145.69;nan;52270.13;5074396;28;20195;-85
2023/06/24 02:34:35;;;;;;;9.47;4.57;;;;;;;-145.69;nan;52285.97;5075154;28;20233;-85
2023/06/24 02:37:02;;;;;;;10.10;4.77;;;;;;;-145.69;nan;52278.03;5074593;28;20222;-85
2023/06/24 02:39:28;;;;;;;8.80;4.50;;;;;;;-145.69;nan;52309.72;5074993;28;20297;-85
2023/06/24 02:41:55;;;;;;;8.37;4.20;;;;;;;-145.69;nan;52262.19;5074257;28;20206;-85
2023/06/24 02:44:24;;;;;;;6.47;3.83;;;;;;;-145.69;nan;52282.00;5074101;28;20226;-84
2023/06/24 02:46:52;;;;;;;6.43;4.17;;;;;;;-145.69;nan;52285.97;5074371;28;20547;-84
2023/06/24 02:49:21;;;;;;;6.07;4.00;;;;;;;-145.69;nan;52287.94;5074422;28;20238;-84
2023/06/24 02:51:49;;;;;;;5.97;4.20;;;;;;;-145.69;nan;52317.66;5074432;28;20229;-84
2023/06/24 02:54:18;;;;;;;7.67;4.17;;;;;;;-145.69;nan;52278.03;5074062;28;20194;-84
2023/06/24 02:56:48;;;;;;;8.13;4.43;;;;;;;-145.69;nan;52295.84;5074517;28;20209;-84
2023/06/24 02:59:15;;;;;;;7.23;4.20;;;;;;;-145.69;nan;52333.47;5074030;28;20209;-84
2023/06/24 03:01:45;;;;;;;6.53;4.60;;;;;;;-145.69;nan;52307.75;5073795;28;20236;-83
2023/06/24 03:04:12;;;;;;;6.87;4.20;;;;;;;-145.69;nan;52262.19;5078258;28;20590;-85
2023/06/24 03:06:42;;;;;;;6.90;4.47;;;;;;;-145.69;nan;52278.03;5073667;28;20626;-85
2023/06/24 03:09:09;;;;;;;8.63;3.97;;;;;;;-145.69;nan;52280.00;5074148;28;20190;-84
2023/06/24 03:11:41;;;;;;;6.07;4.17;;;;;;;-145.69;nan;52276.06;5071839;28;20195;-84
2023/06/24 03:14:08;;;;;;;7.17;4.10;;;;;;;-145.69;nan;52293.88;5073901;28;20633;-84
2023/06/24 03:16:40;;;;;;;11.37;4.47;;;;;;;-145.69;nan;52289.91;5073995;28;20198;-84
2023/06/24 03:19:07;;;;;;;8.97;4.67;;;;;;;-145.69;nan;52289.91;5074151;28;20572;-84
2023/06/24 03:21:34;;;;;;;7.73;4.23;;;;;;;-145.69;nan;52305.75;5073240;28;20191;-84
2023/06/24 03:24:04;;;;;;;5.37;3.73;;;;;;;-145.69;nan;52282.00;5073851;28;20199;-84
2023/06/24 03:26:34;;;;;;;6.33;4.43;;;;;;;-145.69;nan;52276.06;5073141;28;20314;-84
2023/06/24 03:29:01;;;;;;;7.10;4.03;;;;;;;-145.69;nan;52317.66;5073631;28;20290;-85
2023/06/24 03:31:27;;;;;;;7.68;4.07;;;;;;;-145.69;nan;52289.91;5072991;28;20715;-83
2023/06/24 03:33:54;;;;;;;7.53;4.33;;;;;;;-145.69;nan;52283.97;5073619;28;20253;-84
2023/06/24 03:36:20;;;;;;;7.00;4.10;;;;;;;-145.69;nan;52295.84;5073601;28;20203;-84
2023/06/24 03:38:50;;;;;;;5.83;3.77;;;;;;;-145.69;nan;52285.97;5073656;28;20203;-85
2023/06/24 03:41:18;;;;;;;8.73;4.90;;;;;;;-145.69;nan;52321.59;5073428;28;20236;-85
2023/06/24 03:43:45;;;;;;;7.27;3.93;;;;;;;-145.69;nan;52305.75;5073165;28;20199;-85
2023/06/24 03:46:11;;;;;;;7.27;3.93;;;;;;;-145.69;nan;52278.03;5073451;28;20233;-84
2023/06/24 03:48:40;;;;;;;7.20;3.90;;;;;;;-145.69;nan;52299.81;5073044;28;20238;-85
2023/06/24 03:51:07;;;;;;;9.07;4.83;;;;;;;-145.69;nan;52317.66;5072839;28;20203;-84
2023/06/24 03:53:33;;;;;;;7.80;4.27;;;;;;;-145.69;nan;52282.00;5073040;28;20195;-85
2023/06/24 03:56:01;;;;;;;6.43;4.07;;;;;;;-145.69;nan;52329.53;5073327;28;20260;-85
2023/06/24 03:58:29;;;;;;;7.60;4.00;;;;;;;-145.69;nan;52287.94;5073366;28;20210;-84
2023/06/24 04:00:56;;;;;;;6.47;4.40;;;;;;;-145.69;nan;52309.72;5072819;28;20273;-85
2023/06/24 04:03:25;;;;;;;5.73;3.90;;;;;;;-145.69;nan;52299.81;5069404;28;20205;-85
2023/06/24 04:05:53;;;;;;;7.87;4.63;;;;;;;-145.69;nan;52276.06;5072884;28;20325;-85
2023/06/24 04:08:20;;;;;;;6.70;3.80;;;;;;;-145.69;nan;52270.13;5073176;28;20284;-84
2023/06/24 04:10:46;;;;;;;7.93;4.23;;;;;;;-145.69;nan;52297.84;5072711;28;20556;-84
2023/06/24 04:13:16;;;;;;;6.33;3.90;;;;;;;-145.69;nan;52299.81;5073236;28;20289;-84
2023/06/24 04:15:46;;;;;;;9.67;4.60;;;;;;;-145.69;nan;52285.97;5072772;28;20198;-83
2023/06/24 04:18:14;;;;;;;7.27;4.13;;;;;;;-145.69;nan;52297.84;5072895;28;20681;-85
2023/06/24 04:20:40;;;;;;;4.70;3.60;;;;;;;-145.69;nan;52301.81;5072927;28;20203;-85
2023/06/24 04:23:09;;;;;;;6.53;3.73;;;;;;;-145.69;nan;52283.97;5071562;28;20264;-85
2023/06/24 04:25:35;;;;;;;5.97;4.00;;;;;;;-145.69;nan;52289.91;5072021;28;20916;-85
2023/06/24 04:28:02;;;;;;;7.30;4.20;;;;;;;-145.69;nan;52289.91;5073074;28;20228;-84
2023/06/24 04:30:29;;;;;;;10.37;4.67;;;;;;;-145.69;nan;52276.06;5072762;28;20233;-84
2023/06/24 04:32:57;;;;;;;5.67;3.93;;;;;;;-145.69;nan;52264.16;5072297;28;20191;-85
2023/06/24 04:35:23;;;;;;;8.48;3.85;;;;;;;-145.69;nan;52305.75;5072873;28;20684;-85
2023/06/24 04:37:50;;;;;;;8.27;4.03;;;;;;;-145.69;nan;52276.06;5072801;28;20198;-85
2023/06/24 04:40:22;;;;;;;6.97;3.70;;;;;;;-145.69;nan;52321.59;5072830;28;20195;-85
2023/06/24 04:42:48;;;;;;;7.10;3.80;;;;;;;-145.69;nan;52272.09;5072137;28;20195;-85
2023/06/24 04:45:15;;;;;;;7.23;3.60;;;;;;;-145.69;nan;52270.13;5072529;28;20222;-83
2023/06/24 04:47:42;;;;;;;5.50;3.63;;;;;;;-145.69;nan;52258.22;5072631;28;20211;-85
2023/06/24 04:50:14;;;;;;;5.10;3.40;;;;;;;-145.69;nan;52270.13;5072499;28;20230;-85
2023/06/24 04:52:42;;;;;;;9.25;3.58;;;;;;;-145.69;nan;52264.16;5072645;28;20278;-85
2023/06/24 04:55:09;;;;;;;5.85;3.70;;;;;;;-145.69;nan;52289.91;5072809;28;20318;-84
2023/06/24 04:57:36;;;;;;;9.38;3.78;;;;;;;-145.69;nan;52250.31;5072877;28;20211;-85
2023/06/24 05:00:04;;;;;;;6.00;3.65;;;;;;;-145.69;nan;52303.78;5072362;28;20194;-83
2023/06/24 05:02:31;;;;;;;4.78;3.38;;;;;;;-145.69;nan;52262.19;5072652;28;20211;-85
2023/06/24 05:04:59;;;;;;;5.88;3.63;;;;;;;-145.69;nan;52276.06;5072778;28;20458;-84
2023/06/24 05:07:27;;;;;;;6.43;3.58;;;;;;;-145.69;nan;52262.19;5075798;28;20198;-84
2023/06/24 05:09:53;;;;;;;6.22;3.65;;;;;;;-145.69;nan;52291.91;5076747;28;20557;-84
2023/06/24 05:12:20;;;;;;;5.85;3.60;;;;;;;-145.69;nan;52289.91;5076010;28;20191;-85
2023/06/24 05:14:55;;;;;;;5.20;3.40;;;;;;;-145.69;nan;52262.19;5076253;28;20206;-85
2023/06/24 05:17:22;;;;;;;5.35;3.38;;;;;;;-145.69;nan;52252.28;5075831;28;20202;-85
2023/06/24 05:19:49;;;;;;;6.10;3.67;;;;;;;-145.69;nan;52280.00;5076341;28;20298;-84
2023/06/24 05:22:15;;;;;;;6.55;3.45;;;;;;;-145.69;nan;52307.75;5075676;28;20218;-85
2023/06/24 05:24:43;;;;;;;6.35;3.72;;;;;;;-145.69;nan;52270.13;5076313;28;20286;-85
2023/06/24 05:27:10;;;;;;;9.82;3.85;;;;;;;-145.69;nan;52272.09;5075808;28;20218;-85
2023/06/24 05:29:37;;;;;;;5.60;3.70;;;;;;;-145.69;nan;52282.00;5076089;28;20283;-85
2023/06/24 05:32:06;;;;;;;8.02;3.67;;;;;;;-145.69;nan;52246.34;5075997;28;20205;-85
2023/06/24 05:34:33;;;;;;;5.65;3.30;;;;;;;-145.69;nan;52248.34;5074343;28;20211;-85
2023/06/24 05:37:00;;;;;;;5.43;3.20;;;;;;;-145.69;nan;52293.88;5075888;28;20256;-84
2023/06/24 05:39:27;;;;;;;4.78;3.33;;;;;;;-145.69;nan;52287.94;5076011;28;20259;-85
2023/06/24 05:41:55;;;;;;;8.40;3.83;;;;;;;-145.69;nan;52297.84;5075618;28;20244;-85
2023/06/24 05:44:22;;;;;;;4.80;3.40;;;;;;;-145.69;nan;52226.53;5075956;28;20281;-84
2023/06/24 05:46:49;;;;;;;5.25;3.75;;;;;;;-145.69;nan;52282.00;5075525;28;20234;-84
2023/06/24 05:49:15;;;;;;;5.43;2.92;;;;;;;-145.69;nan;52234.47;5075556;28;20230;-85
2023/06/24 05:51:42;;;;;;;5.32;3.33;;;;;;;-145.69;nan;52287.94;5075174;28;20218;-84
2023/06/24 05:54:08;;;;;;;5.88;3.28;;;;;;;-145.69;nan;52280.00;5075328;28;20558;-85
2023/06/24 05:56:36;;;;;;;5.38;3.33;;;;;;;-145.69;nan;52274.06;5075531;28;20661;-84
2023/06/24 05:59:05;;;;;;;4.82;3.13;;;;;;;-145.69;nan;52254.28;5075617;28;20206;-84
2023/06/24 06:01:31;;;;;;;5.15;2.90;;;;;;;-145.69;nan;52258.22;5071538;28;20226;-85
2023/06/24 06:03:58;;;;;;;5.50;2.97;;;;;;;-145.69;nan;52230.50;5075084;28;20699;-85
2023/06/24 06:06:24;;;;;;;3.83;2.95;;;;;;;-145.69;nan;52234.47;5075294;28;20237;-84
2023/06/24 06:08:51;;;;;;;5.28;3.00;;;;;;;-145.69;nan;52228.53;5075185;28;20225;-84
2023/06/24 06:11:17;;;;;;;7.00;3.17;;;;;;;-145.69;nan;52242.38;5075224;28;20203;-84
2023/06/24 06:13:44;;;;;;;4.00;2.80;;;;;;;-145.69;nan;52246.34;5074717;28;20290;-84
2023/06/24 06:16:12;;;;;;;5.03;3.20;;;;;;;-145.69;nan;52238.44;5070034;28;20194;-84
2023/06/24 06:18:38;;;;;;;4.80;2.70;;;;;;;-145.69;nan;52200.81;5071882;28;20195;-85
2023/06/24 06:21:05;;;;;;;5.00;2.85;;;;;;;-145.69;nan;52234.47;5074833;28;20207;-83
2023/06/24 06:23:31;;;;;;;3.60;2.53;;;;;;;-145.69;nan;52244.38;5074385;28;20198;-84
2023/06/24 06:25:58;;;;;;;6.00;2.75;;;;;;;-145.69;nan;52230.50;5075074;28;20249;-84
2023/06/24 06:28:24;;;;;;;3.85;2.45;;;;;;;-145.69;nan;52238.44;5074324;28;20203;-84
2023/06/24 06:30:51;;;;;;;3.55;2.65;;;;;;;-145.69;nan;52252.28;5074826;28;20202;-84
2023/06/24 06:33:19;;;;;;;7.70;3.10;;;;;;;-145.69;nan;52218.63;5073985;28;20198;-84
2023/06/24 06:35:45;;;;;;;5.80;3.00;;;;;;;-145.69;nan;52218.63;5073877;28;20202;-84
2023/06/24 06:38:12;;;;;;;4.80;2.92;;;;;;;-145.69;nan;52214.66;5074899;28;20207;-85
2023/06/24 06:40:39;;;;;;;6.13;2.53;;;;;;;-145.69;nan;52230.50;5074718;28;20228;-84
2023/06/24 06:43:05;;;;;;;4.70;2.72;;;;;;;-145.69;nan;52226.53;5074353;28;20550;-83
2023/06/24 06:45:32;;;;;;;5.97;2.92;;;;;;;-145.69;nan;52212.69;5073696;28;20199;-84
2023/06/24 06:47:58;;;;;;;5.65;2.65;;;;;;;-145.69;nan;52212.69;5074293;28;20206;-84
2023/06/24 06:50:26;;;;;;;6.25;2.72;;;;;;;-145.69;nan;52202.78;5074224;28;20539;-85
2023/06/24 06:52:52;;;;;;;5.57;2.58;;;;;;;-145.69;nan;52198.81;5071826;28;20191;-84
2023/06/24 06:55:19;;;;;;;6.18;2.90;;;;;;;-145.69;nan;52179.03;5072591;28;20453;-84
2023/06/24 06:57:45;;;;;;;5.25;2.55;;;;;;;-145.69;nan;52218.63;5073909;28;20218;-84
2023/06/24 07:00:13;;;;;;;3.58;2.45;;;;;;;-145.69;nan;52194.88;5073581;28;20230;-84
2023/06/24 07:02:39;;;;;;;3.30;2.60;;;;;;;-145.69;nan;52218.63;5074296;28;20225;-84
2023/06/24 07:05:06;;;;;;;4.82;2.70;;;;;;;-145.69;nan;52202.78;5074222;28;20661;-82
2023/06/24 07:07:34;;;;;;;3.85;2.67;;;;;;;-145.69;nan;52171.09;5073924;28;20227;-83
2023/06/24 07:10:01;;;;;;;5.82;2.80;;;;;;;-145.69;nan;52206.75;5073681;28;20218;-84
2023/06/24 07:12:27;;;;;;;5.53;2.70;;;;;;;-145.69;nan;52210.72;5074067;28;20754;-80
2023/06/24 07:14:53;;;;;;;6.63;2.80;;;;;;;-145.69;nan;52175.06;5074106;28;20222;-83
2023/06/24 07:17:20;;;;;;;6.22;2.88;;;;;;;-145.69;nan;52179.03;5074020;28;20203;-84
2023/06/24 07:19:46;;;;;;;4.90;3.05;;;;;;;-145.69;nan;52190.91;5073419;28;20304;-82
2023/06/24 07:22:14;;;;;;;4.47;3.10;;;;;;;-145.69;nan;52179.03;5073792;28;20202;-85
2023/06/24 07:24:42;;;;;;;4.95;3.03;;;;;;;-145.69;nan;52204.75;5073792;28;20218;-83
2023/06/24 07:27:08;;;;;;;7.40;3.03;;;;;;;-145.69;nan;52208.72;5073641;28;20585;-84
2023/06/24 07:29:36;;;;;;;7.15;3.13;;;;;;;-145.69;nan;52161.19;5072622;28;20578;-84
2023/06/24 07:32:02;;;;;;;6.22;3.40;;;;;;;-145.69;nan;52175.06;5073572;28;20199;-80
2023/06/24 07:34:30;;;;;;;5.07;3.25;;;;;;;-145.69;nan;52163.19;5073076;28;20198;-83
2023/06/24 07:36:57;;;;;;;5.80;2.75;;;;;;;-145.69;nan;52204.75;5072783;28;20666;-84
2023/06/24 07:39:23;;;;;;;8.52;3.28;;;;;;;-145.69;nan;52196.84;5073198;28;20203;-84
2023/06/24 07:41:54;;;;;;;6.53;3.35;;;;;;;-145.69;nan;52196.84;5073489;28;20199;-83
2023/06/24 07:44:21;;;;;;;7.72;3.30;;;;;;;-145.69;nan;52194.88;5073419;28;20199;-84
2023/06/24 07:46:48;;;;;;;6.18;3.35;;;;;;;-145.69;nan;52175.06;5072959;28;20226;-84
2023/06/24 07:49:15;;;;;;;5.43;3.05;;;;;;;-145.69;nan;52163.19;5073057;28;20241;-84
2023/06/24 07:51:41;;;;;;;5.07;3.40;;;;;;;-145.69;nan;52159.22;5072744;28;20199;-84
2023/06/24 07:54:08;;;;;;;5.35;3.60;;;;;;;-145.69;nan;52190.91;5073022;28;20183;-84
2023/06/24 07:56:34;;;;;;;5.03;3.58;;;;;;;-145.69;nan;52196.84;5072991;28;20210;-83
2023/06/24 07:59:03;;;;;;;5.93;3.38;;;;;;;-145.69;nan;52167.13;5073116;28;20198;-83
2023/06/24 08:01:30;;;;;;;5.32;3.45;;;;;;;-145.69;nan;52186.94;5072789;28;20211;-84
2023/06/24 08:03:56;;;;;;;5.18;3.20;;;;;;;-145.69;nan;52171.09;5072620;28;20199;-84
2023/06/24 08:06:23;;;;;;;10.07;3.10;;;;;;;-145.69;nan;52202.78;5071077;28;20223;-84
2023/06/24 08:08:49;;;;;;;6.00;3.60;;;;;;;-145.69;nan;52159.22;5073134;28;20210;-85
2023/06/24 08:11:16;;;;;;;5.55;3.33;;;;;;;-145.69;nan;52143.38;5073110;28;20209;-84
2023/06/24 08:13:42;;;;;;;5.43;3.50;;;;;;;-145.69;nan;52190.91;5072604;28;20191;-83
2023/06/24 08:16:10;;;;;;;6.30;3.65;;;;;;;-145.69;nan;52179.03;5072078;28;20191;-84
2023/06/24 08:18:37;;;;;;;4.82;3.08;;;;;;;-145.69;nan;52179.03;5071256;28;20205;-85
2023/06/24 08:21:03;;;;;;;9.27;3.88;;;;;;;-145.69;nan;52167.13;5073247;28;20221;-84
2023/06/24 08:23:30;;;;;;;5.35;3.70;;;;;;;-145.69;nan;52159.22;5072574;28;20194;-87
2023/06/24 08:25:56;;;;;;;5.75;3.97;;;;;;;-145.69;nan;52175.06;5069033;28;20653;-87
2023/06/24 08:28:23;;;;;;;7.00;3.42;;;;;;;-145.69;nan;52151.28;5073673;28;20281;-88
2023/06/24 08:30:50;;;;;;;4.47;2.88;;;;;;;-145.69;nan;52171.09;5073511;28;20622;-87
2023/06/24 08:33:17;;;;;;;4.57;3.25;;;;;;;-145.69;nan;52139.41;5073106;28;20289;-86
2023/06/24 08:35:44;;;;;;;5.15;3.28;;;;;;;-145.69;nan;52175.06;5072823;28;20209;-85
2023/06/24 08:38:11;;;;;;;7.47;3.30;;;;;;;-145.69;nan;52165.16;5073010;28;20199;-84
2023/06/24 08:40:39;;;;;;;4.65;2.97;;;;;;;-145.69;nan;52163.19;5073293;28;20194;-85
2023/06/24 08:43:09;;;;;;;4.13;2.90;;;;;;;-145.69;nan;52181.00;5076724;28;20202;-85
2023/06/24 08:45:35;;;;;;;5.22;2.95;;;;;;;-145.69;nan;52157.25;5076516;28;20290;-84
2023/06/24 08:48:04;;;;;;;3.90;2.80;;;;;;;-145.69;nan;52151.28;5076428;28;20693;-84
2023/06/24 08:50:36;;;;;;;4.80;2.80;;;;;;;-145.69;nan;52123.56;5076890;28;20202;-84
2023/06/24 08:53:08;;;;;;;6.63;3.35;;;;;;;-145.69;nan;52155.25;5076559;28;20195;-84
2023/06/24 08:55:40;;;;;;;5.15;2.88;;;;;;;-145.69;nan;52151.28;5076550;28;20198;-83
2023/06/24 08:58:08;;;;;;;6.25;3.30;;;;;;;-145.69;nan;52165.16;5075266;28;21080;-83
2023/06/24 09:00:35;;;;;;;4.05;2.97;;;;;;;-145.69;nan;52127.53;5075932;28;20187;-83
2023/06/24 09:03:01;;;;;;;7.32;2.80;;;;;;;-145.69;nan;52147.34;5076571;28;20221;-82
2023/06/24 09:05:28;;;;;;;5.70;2.92;;;;;;;-145.69;nan;52121.59;5075975;28;20198;-84
2023/06/24 09:07:56;;;;;;;6.63;3.22;;;;;;;-145.69;nan;52115.66;5075964;28;20272;-83
2023/06/24 09:10:32;;;;;;;5.45;3.10;;;;;;;-145.69;nan;52119.63;5076200;28;20234;-84
2023/06/24 09:12:59;;;;;;;6.35;3.00;;;;;;;-145.69;nan;52097.84;5075607;28;20202;-83
2023/06/24 09:15:26;;;;;;;5.43;2.72;;;;;;;-145.69;nan;52107.72;5076100;28;20210;-83
2023/06/24 09:17:52;;;;;;;4.75;2.80;;;;;;;-145.69;nan;52091.88;5076099;28;20210;-83
2023/06/24 09:20:22;;;;;;;6.72;3.13;;;;;;;-145.69;nan;52074.06;5076176;28;20210;-83
2023/06/24 09:22:49;;;;;;;9.32;2.78;;;;;;;-145.69;nan;52107.72;5075694;28;20600;-84
2023/06/24 09:25:19;;;;;;;3.25;2.75;;;;;;;-145.69;nan;52087.94;5075596;28;20203;-83
2023/06/24 09:27:48;;;;;;;5.82;3.03;;;;;;;-145.69;nan;52068.13;5075811;28;20315;-84
2023/06/24 09:30:20;;;;;;;4.25;2.78;;;;;;;-145.69;nan;52082.00;5075775;28;20248;-84
2023/06/24 09:32:46;;;;;;;4.32;2.63;;;;;;;-145.69;nan;52107.72;5075751;28;20214;-83
2023/06/24 09:35:13;;;;;;;4.05;2.50;;;;;;;-145.69;nan;52082.00;5075619;28;20209;-83
2023/06/24 09:37:40;;;;;;;6.80;2.90;;;;;;;-145.69;nan;52101.78;5075859;28;20209;-83
2023/06/24 09:40:09;;;;;;;3.20;2.65;;;;;;;-145.69;nan;52115.66;5075671;28;20191;-83
2023/06/24 09:42:37;;;;;;;4.22;3.03;;;;;;;-145.69;nan;52099.81;5075755;28;20589;-84
2023/06/24 09:45:07;;;;;;;4.65;2.58;;;;;;;-145.69;nan;52074.06;5075639;28;20206;-83
2023/06/24 09:47:34;;;;;;;5.78;2.60;;;;;;;-145.69;nan;52080.00;5075505;28;20226;-83
2023/06/24 09:50:00;;;;;;;4.30;2.67;;;;;;;-145.69;nan;52064.16;5075284;28;20230;-83
2023/06/24 09:52:28;;;;;;;6.15;2.65;;;;;;;-145.69;nan;52062.19;5074982;28;20649;-83
2023/06/24 09:54:56;;;;;;;3.25;2.13;;;;;;;-145.69;nan;52076.03;5075423;28;20664;-83
2023/06/24 09:57:26;;;;;;;5.40;2.97;;;;;;;-145.69;nan;52076.03;5073941;28;20441;-83
2023/06/24 09:59:55;;;;;;;6.68;2.65;;;;;;;-145.69;nan;52091.88;5075387;28;20202;-83
2023/06/24 10:02:22;;;;;;;3.25;2.40;;;;;;;-145.69;nan;52111.69;5075167;28;20209;-83
2023/06/24 10:04:50;;;;;;;4.32;2.40;;;;;;;-145.69;nan;52070.09;5063206;28;20199;-84
2023/06/24 10:07:17;;;;;;;4.18;2.00;;;;;;;-145.69;nan;52127.53;5055198;28;20255;-82
2023/06/24 10:09:43;;;;;;;4.28;2.83;;;;;;;-145.69;nan;52064.16;5055041;28;20684;-83
2023/06/24 10:12:11;;;;;;;4.05;2.50;;;;;;;-145.69;nan;52087.94;5055194;28;20207;-83
2023/06/24 10:14:38;;;;;;;9.38;2.33;;;;;;;-145.69;nan;52080.00;5066687;28;20187;-85
2023/06/24 10:17:07;;;;;;;5.00;2.50;;;;;;;-145.69;nan;52068.13;5075205;28;20229;-84
2023/06/24 10:19:40;;;;;;;3.63;2.40;;;;;;;-145.69;nan;52056.25;5073883;28;20199;-83
2023/06/24 10:22:09;;;;;;;3.83;2.40;;;;;;;-145.69;nan;52048.31;5072669;28;20202;-83
2023/06/24 10:24:39;;;;;;;4.22;2.45;;;;;;;-145.69;nan;52080.00;5074817;28;20199;-84
2023/06/24 10:27:10;;;;;;;4.05;2.40;;;;;;;-145.69;nan;52056.25;5074515;28;20754;-85
2023/06/24 10:29:38;;;;;;;2.85;2.20;;;;;;;-145.69;nan;52080.00;5074569;28;20209;-83
2023/06/24 10:32:07;;;;;;;4.57;2.15;;;;;;;-145.69;nan;52076.03;5073757;28;20195;-84
2023/06/24 10:34:39;;;;;;;3.33;2.10;;;;;;;-145.69;nan;52080.00;5074809;28;20204;-85
2023/06/24 10:37:09;;;;;;;2.67;2.17;;;;;;;-145.69;nan;52093.88;5074243;28;20209;-84
2023/06/24 10:39:48;;;;;;;7.45;2.70;;;;;;;-145.69;nan;52080.00;5073679;28;20201;-84
2023/06/24 10:42:43;;;;;;;5.00;2.50;;;;;;;-145.69;nan;52060.22;5072977;28;20199;-85
2023/06/24 10:45:18;;;;;;;4.38;2.60;;;;;;;-145.69;nan;52048.31;5074557;28;20244;-84
2023/06/24 10:47:48;;;;;;;3.25;2.50;;;;;;;-145.69;nan;52048.31;5074257;28;20266;-86
2023/06/24 10:50:15;;;;;;;3.95;2.47;;;;;;;-145.69;nan;52060.22;5074475;28;20853;-86
2023/06/24 10:52:43;;;;;;;5.07;2.25;;;;;;;-145.69;nan;52072.09;5074375;28;20202;-85
2023/06/24 10:55:11;;;;;;;4.63;2.38;;;;;;;-145.69;nan;52060.22;5074143;28;20716;-84
2023/06/24 10:57:37;;;;;;;2.95;2.40;;;;;;;-145.69;nan;52068.13;5074003;28;20210;-83
2023/06/24 11:00:05;;;;;;;2.88;1.98;;;;;;;-145.69;nan;52022.59;5074386;28;20225;-86
2023/06/24 11:02:31;;;;;;;4.30;2.55;;;;;;;-145.69;nan;52072.09;5074140;28;20195;-85
2023/06/24 11:05:01;;;;;;;5.28;2.55;;;;;;;-145.69;nan;52064.16;5073699;28;20209;-86
2023/06/24 11:07:30;;;;;;;4.22;2.50;;;;;;;-145.69;nan;52044.38;5074114;28;20238;-84
2023/06/24 11:09:59;;;;;;;3.60;2.42;;;;;;;-145.69;nan;52028.53;5073766;28;20731;-83
2023/06/24 11:12:27;;;;;;;3.50;2.50;;;;;;;-145.69;nan;52008.72;5073654;28;20209;-85
2023/06/24 11:14:57;;;;;;;6.25;2.42;;;;;;;-145.69;nan;52050.31;5073768;28;20573;-84
2023/06/24 11:17:24;;;;;;;9.98;2.10;;;;;;;-145.69;nan;52040.41;5074051;28;20203;-84
2023/06/24 11:19:50;;;;;;;3.78;2.38;;;;;;;-145.69;nan;52044.38;5074024;28;20195;-84
2023/06/24 11:22:18;;;;;;;5.65;2.70;;;;;;;-145.69;nan;52040.41;5073102;28;20210;-84
2023/06/24 11:24:47;;;;;;;6.03;2.50;;;;;;;-145.69;nan;52048.31;5073964;28;20312;-84
2023/06/24 11:27:19;;;;;;;3.75;2.00;;;;;;;-145.69;nan;52036.44;5073336;28;20191;-84
2023/06/24 11:29:46;;;;;;;3.90;2.25;;;;;;;-145.69;nan;52028.53;5073910;28;20221;-85
2023/06/24 11:32:12;;;;;;;4.32;2.70;;;;;;;-145.69;nan;52012.69;5073718;28;20201;-84
2023/06/24 11:34:39;;;;;;;3.92;2.55;;;;;;;-145.69;nan;52022.59;5073488;28;20207;-85
2023/06/24 11:37:16;;;;;;;3.88;2.38;;;;;;;-145.69;nan;52000.81;5072936;28;20195;-85